Flight Track Log - Related Links

Times and Time Zones

All times are in EST time to prevent confusion due to time zone crossing. See the VP-BLX flight status page for this flight to view local times or setup timezone preferences in your user account.

Time Position Orientation Groundspeed Altitude Reporting Facility
EST Latitude Longitude Course Direction KTS MPH feet Rate Location/Type
Sun 06:44:29 PM 28.5620 77.0890 90° East  Level FlightAware ADS-B
Sun 06:45:01 PM 28.5610 77.0910 120° Southeast 230 Level FlightAware ADS-B
Sun 06:45:26 PM 28.5610 77.0930 90° East 243 Level FlightAware ADS-B
Sun 06:48:29 PM 28.5610 77.1050 326° Northwest 255 Level FlightAware ADS-B
Sun 06:49:00 PM 28.8146 76.8980 326° Northwest  Level Estimated
Sun 06:49:17 PM 28.5600 77.1080 111° Southeast  Level FlightAware ADS-B
Sun 06:53:54 PM 28.5640 77.0980 285° West 444 Level FlightAware ADS-B
Sun 06:54:28 PM 28.5730 77.0590 285° West 167 192 2,300 3,360 Climbing FlightAware ADS-B
Sun 06:54:44 PM 28.5760 77.0450 284° West 172 198 2,800 1,171 Climbing FlightAware ADS-B
Sun 06:55:09 PM 28.5820 77.0210 286° West 203 234 3,100 840 Climbing FlightAware ADS-B
Sun 06:55:34 PM 28.5890 76.9920 285° West 240 276 3,500 1,286 Climbing FlightAware ADS-B
Sun 06:55:51 PM 28.5930 76.9720 283° West 252 290 4,000 2,250 Climbing FlightAware ADS-B
Sun 06:56:14 PM 28.6000 76.9410 284° West 258 297 5,000 2,604 Climbing FlightAware ADS-B
Sun 06:56:44 PM 28.6090 76.9010 284° West 263 303 6,300 2,609 Climbing FlightAware ADS-B
Sun 06:57:00 PM 28.6110 76.8780 276° West 270 311 7,000 2,438 Climbing FlightAware ADS-B
Sun 06:57:16 PM 28.6120 76.8560 273° West 274 315 7,600 2,550 Climbing FlightAware ADS-B
Sun 06:57:40 PM 28.6140 76.8200 274° West 275 316 8,700 2,500 Climbing FlightAware ADS-B
Sun 06:58:04 PM 28.6150 76.7860 272° West 278 320 9,600 1,969 Climbing FlightAware ADS-B
Sun 06:58:44 PM 28.6190 76.7250 274° West 297 342 10,800 1,700 Climbing FlightAware ADS-B
Sun 06:59:04 PM 28.6240 76.6950 281° West 311 358 11,300 1,500 Climbing FlightAware ADS-B
Sun 06:59:24 PM 28.6400 76.6650 301° West 323 372 11,800 1,500 Climbing FlightAware ADS-B
Sun 07:02:00 PM 28.8647 76.4901 326° Northwest  Level Estimated
Sun 07:03:00 PM 28.9511 76.4226 326° Northwest  Level Estimated
Sun 07:04:00 PM 29.0374 76.3550 326° Northwest  Level Estimated
Sun 07:05:00 PM 29.1237 76.2873 326° Northwest  Level Estimated
Sun 07:06:00 PM 29.2100 76.2195 326° Northwest  Level Estimated
Sun 07:07:00 PM 29.2962 76.1516 326° Northwest  Level Estimated
Sun 07:08:00 PM 29.3824 76.0835 325° Northwest  Level Estimated
Sun 07:09:00 PM 29.4686 76.0154 325° Northwest  Level Estimated
Sun 07:10:00 PM 29.5547 75.9471 325° Northwest  Level Estimated
Sun 07:11:00 PM 29.6408 75.8787 325° Northwest  Level Estimated
Sun 07:12:00 PM 29.7269 75.8102 325° Northwest  Level Estimated
Sun 07:13:00 PM 29.8129 75.7416 325° Northwest  Level Estimated
Sun 07:14:00 PM 29.8989 75.6729 325° Northwest  Level Estimated
Sun 07:15:00 PM 29.9848 75.6040 325° Northwest  Level Estimated
Sun 07:16:00 PM 30.0707 75.5350 325° Northwest  Level Estimated
Sun 07:17:00 PM 30.1566 75.4659 325° Northwest  Level Estimated
Sun 07:18:00 PM 30.2425 75.3967 325° Northwest  Level Estimated
Sun 07:19:00 PM 30.3283 75.3274 325° Northwest  Level Estimated
Sun 07:20:00 PM 30.4140 75.2579 325° Northwest  Level Estimated
Sun 07:21:00 PM 30.4998 75.1883 325° Northwest  Level Estimated
Sun 07:22:00 PM 30.5855 75.1186 325° Northwest  Level Estimated
Sun 07:23:00 PM 30.6711 75.0488 325° Northwest  Level Estimated
Sun 07:24:00 PM 30.7568 74.9788 325° Northwest  Level Estimated
Sun 07:25:00 PM 30.8424 74.9087 325° Northwest  Level Estimated
Sun 07:26:00 PM 30.9279 74.8385 325° Northwest  Level Estimated
Sun 07:27:00 PM 31.0134 74.7682 325° Northwest  Level Estimated
Sun 07:28:00 PM 31.0989 74.6977 325° Northwest  Level Estimated
Sun 07:29:00 PM 31.1843 74.6272 325° Northwest  Level Estimated
Sun 07:30:00 PM 31.2697 74.5564 325° Northwest  Level Estimated
Sun 07:31:00 PM 31.3551 74.4856 325° Northwest  Level Estimated
Sun 07:32:00 PM 31.4404 74.4146 325° Northwest  Level Estimated
Sun 07:33:00 PM 31.5257 74.3435 325° Northwest  Level Estimated
Sun 07:34:00 PM 31.6109 74.2723 325° Northwest  Level Estimated
Sun 07:35:00 PM 31.6961 74.2009 325° Northwest  Level Estimated
Sun 07:36:00 PM 31.7813 74.1294 324° Northwest  Level Estimated
Sun 07:37:00 PM 31.8664 74.0578 324° Northwest  Level Estimated
Sun 07:38:00 PM 31.9515 73.9861 324° Northwest  Level Estimated
Sun 07:39:00 PM 32.0365 73.9142 324° Northwest  Level Estimated
Sun 07:40:00 PM 32.1215 73.8422 324° Northwest  Level Estimated
Sun 07:41:00 PM 32.2065 73.7700 324° Northwest  Level Estimated
Sun 07:42:00 PM 32.2914 73.6977 324° Northwest  Level Estimated
Sun 07:43:00 PM 32.3763 73.6253 324° Northwest  Level Estimated
Sun 07:44:00 PM 32.4611 73.5527 324° Northwest  Level Estimated
Sun 07:45:00 PM 32.5459 73.4800 324° Northwest  Level Estimated
Sun 07:46:00 PM 32.6306 73.4072 324° Northwest  Level Estimated
Sun 07:47:00 PM 32.7153 73.3342 324° Northwest  Level Estimated
Sun 07:48:00 PM 32.8000 73.2611 324° Northwest  Level Estimated
Sun 07:49:00 PM 32.8846 73.1879 324° Northwest  Level Estimated
Sun 07:50:00 PM 32.9692 73.1145 324° Northwest  Level Estimated
Sun 07:51:00 PM 33.0537 73.0409 324° Northwest  Level Estimated
Sun 07:52:00 PM 33.1382 72.9673 324° Northwest  Level Estimated
Sun 07:53:00 PM 33.2227 72.8935 324° Northwest  Level Estimated
Sun 07:54:00 PM 33.3071 72.8195 324° Northwest  Level Estimated
Sun 07:55:00 PM 33.3914 72.7454 324° Northwest  Level Estimated
Sun 07:56:00 PM 33.4758 72.6712 324° Northwest  Level Estimated
Sun 07:57:00 PM 33.5600 72.5968 324° Northwest  Level Estimated
Sun 07:58:00 PM 33.6443 72.5222 324° Northwest  Level Estimated
Sun 07:59:00 PM 33.7284 72.4475 324° Northwest  Level Estimated
Sun 08:00:00 PM 33.8126 72.3727 324° Northwest  Level Estimated
Sun 08:01:00 PM 33.8967 72.2977 324° Northwest  Level Estimated
Sun 08:02:00 PM 33.9807 72.2226 323° Northwest  Level Estimated
Sun 08:03:00 PM 34.0647 72.1473 323° Northwest  Level Estimated
Sun 08:04:00 PM 34.1487 72.0719 323° Northwest  Level Estimated
Sun 08:05:00 PM 34.2326 71.9964 323° Northwest  Level Estimated
Sun 08:06:00 PM 34.3164 71.9206 323° Northwest  Level Estimated
Sun 08:07:00 PM 34.4003 71.8448 323° Northwest  Level Estimated
Sun 08:08:00 PM 34.4840 71.7687 323° Northwest  Level Estimated
Sun 08:09:00 PM 34.5678 71.6926 323° Northwest  Level Estimated
Sun 08:10:00 PM 34.6514 71.6162 323° Northwest  Level Estimated
Sun 08:11:00 PM 34.7351 71.5397 323° Northwest  Level Estimated
Sun 08:12:00 PM 34.8186 71.4631 323° Northwest  Level Estimated
Sun 08:13:00 PM 34.8975 71.3905 323° Northwest  Level Estimated
Sun 08:14:00 PM 34.9764 71.3179 323° Northwest  Level Estimated
Sun 08:15:00 PM 35.0552 71.2450 323° Northwest  Level Estimated
Sun 08:16:00 PM 35.1340 71.1721 323° Northwest  Level Estimated
Sun 08:17:00 PM 35.2127 71.0990 323° Northwest  Level Estimated
Sun 08:18:00 PM 35.2914 71.0257 323° Northwest  Level Estimated
Sun 08:19:00 PM 35.3701 70.9524 323° Northwest  Level Estimated
Sun 08:20:00 PM 35.4487 70.8788 323° Northwest  Level Estimated
Sun 08:21:00 PM 35.5272 70.8052 323° Northwest  Level Estimated
Sun 08:22:00 PM 35.6057 70.7314 323° Northwest  Level Estimated
Sun 08:23:00 PM 35.6842 70.6574 323° Northwest  Level Estimated
Sun 08:24:00 PM 35.7626 70.5833 323° Northwest  Level Estimated
Sun 08:25:00 PM 35.8410 70.5090 322° Northwest  Level Estimated
Sun 08:26:00 PM 35.9193 70.4346 322° Northwest  Level Estimated
Sun 08:27:00 PM 35.9976 70.3601 322° Northwest  Level Estimated
Sun 08:28:00 PM 36.0758 70.2854 322° Northwest  Level Estimated
Sun 08:29:00 PM 36.1540 70.2106 322° Northwest  Level Estimated
Sun 08:30:00 PM 36.2321 70.1356 322° Northwest  Level Estimated
Sun 08:31:00 PM 36.3102 70.0604 322° Northwest  Level Estimated
Sun 08:32:00 PM 36.3883 69.9852 322° Northwest  Level Estimated
Sun 08:33:00 PM 36.4663 69.9097 322° Northwest  Level Estimated
Sun 08:34:00 PM 36.5442 69.8341 322° Northwest  Level Estimated
Sun 08:35:00 PM 36.6221 69.7584 322° Northwest  Level Estimated
Sun 08:36:00 PM 36.7000 69.6825 322° Northwest  Level Estimated
Sun 08:37:00 PM 36.7778 69.6064 322° Northwest  Level Estimated
Sun 08:38:00 PM 36.8556 69.5302 322° Northwest  Level Estimated
Sun 08:39:00 PM 36.9333 69.4539 322° Northwest  Level Estimated
Sun 08:40:00 PM 37.0109 69.3773 322° Northwest  Level Estimated
Sun 08:41:00 PM 37.0885 69.3007 322° Northwest  Level Estimated
Sun 08:42:00 PM 37.1661 69.2238 322° Northwest  Level Estimated
Sun 08:43:00 PM 37.2436 69.1468 322° Northwest  Level Estimated
Sun 08:44:00 PM 37.3211 69.0697 322° Northwest  Level Estimated
Sun 08:45:00 PM 37.3985 68.9924 322° Northwest  Level Estimated
Sun 08:46:00 PM 37.4758 68.9149 322° Northwest  Level Estimated
Sun 08:47:00 PM 37.5532 68.8373 321° Northwest  Level Estimated
Sun 08:48:00 PM 37.6304 68.7595 321° Northwest  Level Estimated
Sun 08:49:00 PM 37.7076 68.6815 321° Northwest  Level Estimated
Sun 08:50:00 PM 37.7848 68.6034 321° Northwest  Level Estimated
Sun 08:51:00 PM 37.8619 68.5251 321° Northwest  Level Estimated
Sun 08:52:00 PM 37.9389 68.4467 321° Northwest  Level Estimated
Sun 08:53:00 PM 38.0159 68.3681 321° Northwest  Level Estimated
Sun 08:54:00 PM 38.0929 68.2893 321° Northwest  Level Estimated
Sun 08:55:00 PM 38.1698 68.2104 321° Northwest  Level Estimated
Sun 08:56:00 PM 38.2466 68.1313 321° Northwest  Level Estimated
Sun 08:57:00 PM 38.3234 68.0520 321° Northwest  Level Estimated
Sun 08:58:00 PM 38.4002 67.9726 321° Northwest  Level Estimated
Sun 08:59:00 PM 38.4768 67.8930 321° Northwest  Level Estimated
Sun 09:00:00 PM 38.5535 67.8132 321° Northwest  Level Estimated
Sun 09:01:00 PM 38.6301 67.7332 321° Northwest  Level Estimated
Sun 09:02:00 PM 38.7066 67.6531 321° Northwest  Level Estimated
Sun 09:03:00 PM 38.7831 67.5728 321° Northwest  Level Estimated
Sun 09:04:00 PM 38.8595 67.4924 321° Northwest  Level Estimated
Sun 09:05:00 PM 38.9358 67.4117 321° Northwest  Level Estimated
Sun 09:06:00 PM 39.0121 67.3309 321° Northwest  Level Estimated
Sun 09:07:00 PM 39.0884 67.2499 321° Northwest  Level Estimated
Sun 09:08:00 PM 39.1646 67.1688 320° Northwest  Level Estimated
Sun 09:09:00 PM 39.2407 67.0874 320° Northwest  Level Estimated
Sun 09:10:00 PM 39.3168 67.0059 320° Northwest  Level Estimated
Sun 09:11:00 PM 39.3928 66.9242 320° Northwest  Level Estimated
Sun 09:12:00 PM 39.4687 66.8424 320° Northwest  Level Estimated
Sun 09:13:00 PM 39.5446 66.7603 320° Northwest  Level Estimated
Sun 09:14:00 PM 39.6205 66.6781 320° Northwest  Level Estimated
Sun 09:15:00 PM 39.6963 66.5957 320° Northwest  Level Estimated
Sun 09:16:00 PM 39.7720 66.5131 320° Northwest  Level Estimated
Sun 09:17:00 PM 39.8477 66.4303 320° Northwest  Level Estimated
Sun 09:18:00 PM 39.9233 66.3474 320° Northwest  Level Estimated
Sun 09:19:00 PM 39.9988 66.2642 320° Northwest  Level Estimated
Sun 09:20:00 PM 40.0743 66.1809 320° Northwest  Level Estimated
Sun 09:21:00 PM 40.1498 66.0974 320° Northwest  Level Estimated
Sun 09:22:00 PM 40.2251 66.0137 320° Northwest  Level Estimated
Sun 09:23:00 PM 40.3004 65.9298 320° Northwest  Level Estimated
Sun 09:24:00 PM 40.3757 65.8458 320° Northwest  Level Estimated
Sun 09:25:00 PM 40.4509 65.7615 320° Northwest  Level Estimated
Sun 09:26:00 PM 40.5260 65.6771 320° Northwest  Level Estimated
Sun 09:27:00 PM 40.6011 65.5925 319° Northwest  Level Estimated
Sun 09:28:00 PM 40.6761 65.5076 319° Northwest  Level Estimated
Sun 09:29:00 PM 40.7510 65.4226 319° Northwest  Level Estimated
Sun 09:30:00 PM 40.8259 65.3374 319° Northwest  Level Estimated
Sun 09:31:00 PM 40.9007 65.2520 319° Northwest  Level Estimated
Sun 09:32:00 PM 40.9755 65.1665 319° Northwest  Level Estimated
Sun 09:33:00 PM 41.0502 65.0807 319° Northwest  Level Estimated
Sun 09:34:00 PM 41.1248 64.9947 319° Northwest  Level Estimated
Sun 09:35:00 PM 41.1994 64.9085 319° Northwest  Level Estimated
Sun 09:36:00 PM 41.2739 64.8222 319° Northwest  Level Estimated
Sun 09:37:00 PM 41.3483 64.7356 319° Northwest  Level Estimated
Sun 09:38:00 PM 41.4227 64.6488 319° Northwest  Level Estimated
Sun 09:39:00 PM 41.4970 64.5619 319° Northwest  Level Estimated
Sun 09:40:00 PM 41.5712 64.4747 319° Northwest  Level Estimated
Sun 09:41:00 PM 41.6454 64.3873 319° Northwest  Level Estimated
Sun 09:42:00 PM 41.7195 64.2998 319° Northwest  Level Estimated
Sun 09:43:00 PM 41.7935 64.2120 319° Northwest  Level Estimated
Sun 09:44:00 PM 41.8675 64.1240 318° Northwest  Level Estimated
Sun 09:45:00 PM 41.9414 64.0359 318° Northwest  Level Estimated
Sun 09:46:00 PM 42.0153 63.9475 318° Northwest  Level Estimated
Sun 09:47:00 PM 42.0890 63.8589 318° Northwest  Level Estimated
Sun 09:48:00 PM 42.1627 63.7701 318° Northwest  Level Estimated
Sun 09:49:00 PM 42.2364 63.6811 318° Northwest  Level Estimated
Sun 09:50:00 PM 42.3099 63.5919 318° Northwest  Level Estimated
Sun 09:51:00 PM 42.3834 63.5025 318° Northwest  Level Estimated
Sun 09:52:00 PM 42.4569 63.4129 318° Northwest  Level Estimated
Sun 09:53:00 PM 42.5302 63.3231 318° Northwest  Level Estimated
Sun 09:54:00 PM 42.6035 63.2330 318° Northwest  Level Estimated
Sun 09:55:00 PM 42.6767 63.1427 318° Northwest  Level Estimated
Sun 09:56:00 PM 42.7499 63.0523 318° Northwest  Level Estimated
Sun 09:57:00 PM 42.8229 62.9616 318° Northwest  Level Estimated
Sun 09:58:00 PM 42.8984 62.8676 318° Northwest  Level Estimated
Sun 09:59:00 PM 42.9738 62.7734 318° Northwest  Level Estimated
Sun 10:00:00 PM 43.0491 62.6790 318° Northwest  Level Estimated
Sun 10:01:00 PM 43.1244 62.5843 317° Northwest  Level Estimated
Sun 10:02:00 PM 43.1995 62.4894 317° Northwest  Level Estimated
Sun 10:03:00 PM 43.2746 62.3943 317° Northwest  Level Estimated
Sun 10:04:00 PM 43.3496 62.2989 317° Northwest  Level Estimated
Sun 10:05:00 PM 43.4245 62.2033 317° Northwest  Level Estimated
Sun 10:06:00 PM 43.4994 62.1074 317° Northwest  Level Estimated
Sun 10:07:00 PM 43.5741 62.0113 317° Northwest  Level Estimated
Sun 10:08:00 PM 43.6488 61.9150 317° Northwest  Level Estimated
Sun 10:09:00 PM 43.7234 61.8185 317° Northwest  Level Estimated
Sun 10:10:00 PM 43.7979 61.7217 317° Northwest  Level Estimated
Sun 10:11:00 PM 43.8723 61.6246 317° Northwest  Level Estimated
Sun 10:12:00 PM 43.9467 61.5273 317° Northwest  Level Estimated
Sun 10:13:00 PM 44.0210 61.4298 317° Northwest  Level Estimated
Sun 10:14:00 PM 44.0952 61.3320 317° Northwest  Level Estimated
Sun 10:15:00 PM 44.1693 61.2340 317° Northwest  Level Estimated
Sun 10:16:00 PM 44.2433 61.1357 316° Northwest  Level Estimated
Sun 10:17:00 PM 44.3172 61.0372 316° Northwest  Level Estimated
Sun 10:18:00 PM 44.3911 60.9385 316° Northwest  Level Estimated
Sun 10:19:00 PM 44.4649 60.8395 316° Northwest  Level Estimated
Sun 10:20:00 PM 44.5385 60.7402 316° Northwest  Level Estimated
Sun 10:21:00 PM 44.6121 60.6407 316° Northwest  Level Estimated
Sun 10:22:00 PM 44.6856 60.5409 316° Northwest  Level Estimated
Sun 10:23:00 PM 44.7591 60.4409 316° Northwest  Level Estimated
Sun 10:24:00 PM 44.8324 60.3406 316° Northwest  Level Estimated
Sun 10:25:00 PM 44.9057 60.2401 316° Northwest  Level Estimated
Sun 10:26:00 PM 44.9788 60.1393 316° Northwest  Level Estimated
Sun 10:27:00 PM 45.0519 60.0383 316° Northwest  Level Estimated
Sun 10:28:00 PM 45.1249 59.9370 316° Northwest  Level Estimated
Sun 10:29:00 PM 45.1978 59.8354 316° Northwest  Level Estimated
Sun 10:30:00 PM 45.2705 59.7336 315° West  Level Estimated
Sun 10:31:00 PM 45.3433 59.6315 315° West  Level Estimated
Sun 10:32:00 PM 45.4159 59.5291 315° West  Level Estimated
Sun 10:33:00 PM 45.4884 59.4265 315° West  Level Estimated
Sun 10:34:00 PM 45.5608 59.3237 315° West  Level Estimated
Sun 10:35:00 PM 45.6332 59.2205 315° West  Level Estimated
Sun 10:36:00 PM 45.7054 59.1171 315° West  Level Estimated
Sun 10:37:00 PM 45.7776 59.0135 315° West  Level Estimated
Sun 10:38:00 PM 45.8496 58.9095 315° West  Level Estimated
Sun 10:39:00 PM 45.9216 58.8053 315° West  Level Estimated
Sun 10:40:00 PM 45.9935 58.7008 315° West  Level Estimated
Sun 10:41:00 PM 46.0653 58.5961 315° West  Level Estimated
Sun 10:42:00 PM 46.1369 58.4910 315° West  Level Estimated
Sun 10:43:00 PM 46.2085 58.3857 315° West  Level Estimated
Sun 10:44:00 PM 46.2800 58.2802 314° West  Level Estimated
Sun 10:45:00 PM 46.3514 58.1743 314° West  Level Estimated
Sun 10:46:00 PM 46.4227 58.0682 314° West  Level Estimated
Sun 10:47:00 PM 46.4939 57.9618 314° West  Level Estimated
Sun 10:48:00 PM 46.5650 57.8551 314° West  Level Estimated
Sun 10:49:00 PM 46.6360 57.7481 314° West  Level Estimated
Sun 10:50:00 PM 46.7068 57.6409 314° West  Level Estimated
Sun 10:51:00 PM 46.7776 57.5334 314° West  Level Estimated
Sun 10:52:00 PM 46.8483 57.4256 314° West  Level Estimated
Sun 10:53:00 PM 46.9189 57.3175 314° West  Level Estimated
Sun 10:54:00 PM 46.9894 57.2091 314° West  Level Estimated
Sun 10:55:00 PM 47.0598 57.1004 314° West  Level Estimated
Sun 10:56:00 PM 47.1301 56.9915 313° West  Level Estimated
Sun 10:57:00 PM 47.2003 56.8823 313° West  Level Estimated
Sun 10:58:00 PM 47.2703 56.7727 313° West  Level Estimated
Sun 10:59:00 PM 47.3403 56.6629 313° West  Level Estimated
Sun 11:00:00 PM 47.4102 56.5528 313° West  Level Estimated
Sun 11:01:00 PM 47.4799 56.4424 313° West  Level Estimated
Sun 11:02:00 PM 47.5496 56.3317 313° West  Level Estimated
Sun 11:03:00 PM 47.6191 56.2207 313° West  Level Estimated
Sun 11:04:00 PM 47.6886 56.1094 313° West  Level Estimated
Sun 11:05:00 PM 47.7579 55.9978 313° West  Level Estimated
Sun 11:06:00 PM 47.8271 55.8860 313° West  Level Estimated
Sun 11:07:00 PM 47.8963 55.7738 313° West  Level Estimated
Sun 11:08:00 PM 47.9653 55.6613 313° West  Level Estimated
Sun 11:09:00 PM 48.0342 55.5485 312° West  Level Estimated
Sun 11:10:00 PM 48.1030 55.4355 312° West  Level Estimated
Sun 11:11:00 PM 48.1716 55.3221 312° West  Level Estimated
Sun 11:12:00 PM 48.2402 55.2084 312° West  Level Estimated
Sun 11:13:00 PM 48.3086 55.0944 312° West  Level Estimated
Sun 11:14:00 PM 48.3770 54.9801 312° West  Level Estimated
Sun 11:15:00 PM 48.4452 54.8655 312° West  Level Estimated
Sun 11:16:00 PM 48.5133 54.7506 312° West  Level Estimated
Sun 11:17:00 PM 48.5813 54.6354 312° West  Level Estimated
Sun 11:18:00 PM 48.6492 54.5198 312° West  Level Estimated
Sun 11:19:00 PM 48.7169 54.4040 312° West  Level Estimated
Sun 11:20:00 PM 48.7846 54.2878 311° West  Level Estimated
Sun 11:21:00 PM 48.8521 54.1714 311° West  Level Estimated
Sun 11:22:00 PM 48.9195 54.0546 311° West  Level Estimated
Sun 11:23:00 PM 48.9868 53.9375 311° West  Level Estimated
Sun 11:24:00 PM 49.0540 53.8201 311° West  Level Estimated
Sun 11:25:00 PM 49.1211 53.7024 311° West  Level Estimated
Sun 11:26:00 PM 49.1880 53.5843 311° West  Level Estimated
Sun 11:27:00 PM 49.2548 53.4659 311° West  Level Estimated
Sun 11:28:00 PM 49.3215 53.3472 311° West  Level Estimated
Sun 11:29:00 PM 49.3881 53.2282 311° West  Level Estimated
Sun 11:30:00 PM 49.4545 53.1089 311° West  Level Estimated
Sun 11:31:00 PM 49.5209 52.9892 311° West  Level Estimated
Sun 11:32:00 PM 49.5871 52.8693 310° West  Level Estimated
Sun 11:33:00 PM 49.6531 52.7490 310° West  Level Estimated
Sun 11:34:00 PM 49.7191 52.6283 310° West  Level Estimated
Sun 11:35:00 PM 49.7849 52.5074 310° West  Level Estimated
Sun 11:36:00 PM 49.8506 52.3861 310° West  Level Estimated
Sun 11:37:00 PM 49.9162 52.2645 310° West  Level Estimated
Sun 11:38:00 PM 49.9816 52.1425 310° West  Level Estimated
Sun 11:39:00 PM 50.0470 52.0202 310° West  Level Estimated
Sun 11:40:00 PM 50.1121 51.8976 310° West  Level Estimated
Sun 11:41:00 PM 50.1772 51.7747 310° West  Level Estimated
Sun 11:42:00 PM 50.2421 51.6514 309° West  Level Estimated
Sun 11:43:00 PM 50.3069 51.5277 309° West  Level Estimated
Sun 11:44:00 PM 50.3716 51.4038 309° West  Level Estimated
Sun 11:45:00 PM 50.4361 51.2795 309° West  Level Estimated
Sun 11:46:00 PM 50.5005 51.1548 309° West  Level Estimated
Sun 11:47:00 PM 50.5648 51.0299 309° West  Level Estimated
Sun 11:48:00 PM 50.6289 50.9045 309° West  Level Estimated
Sun 11:49:00 PM 50.6930 50.7789 309° West  Level Estimated
Sun 11:50:00 PM 50.7568 50.6529 309° West  Level Estimated
Sun 11:51:00 PM 50.8205 50.5265 309° West  Level Estimated
Sun 11:52:00 PM 50.8841 50.3998 309° West  Level Estimated
Sun 11:53:00 PM 50.9476 50.2728 308° West  Level Estimated
Sun 11:54:00 PM 51.0109 50.1454 308° West  Level Estimated
Sun 11:55:00 PM 51.0741 50.0177 308° West  Level Estimated
Sun 11:56:00 PM 51.1371 49.8896 308° West  Level Estimated
Sun 11:57:00 PM 51.2000 49.7612 308° West  Level Estimated
Sun 11:58:00 PM 51.2628 49.6324 308° West  Level Estimated
Sun 11:59:00 PM 51.3254 49.5033 308° West  Level Estimated
Mon 12:00:00 AM 51.3879 49.3738 308° West  Level Estimated
Mon 12:01:00 AM 51.4502 49.2439 308° West  Level Estimated
Mon 12:02:00 AM 51.5124 49.1138 308° West  Level Estimated
Mon 12:03:00 AM 51.5745 48.9832 307° West  Level Estimated
Mon 12:04:00 AM 51.6363 48.8523 307° West  Level Estimated
Mon 12:05:00 AM 51.6981 48.7210 307° West  Level Estimated
Mon 12:06:00 AM 51.7597 48.5894 307° West  Level Estimated
Mon 12:07:00 AM 51.8212 48.4574 307° West  Level Estimated
Mon 12:08:00 AM 51.8825 48.3251 307° West  Level Estimated
Mon 12:09:00 AM 51.9436 48.1924 307° West  Level Estimated
Mon 12:10:00 AM 52.0046 48.0593 307° West  Level Estimated
Mon 12:11:00 AM 52.0655 47.9259 307° West  Level Estimated
Mon 12:12:00 AM 52.1262 47.7921 307° West  Level Estimated
Mon 12:13:00 AM 52.1868 47.6580 306° West  Level Estimated
Mon 12:14:00 AM 52.2472 47.5234 306° West  Level Estimated
Mon 12:15:00 AM 52.3074 47.3885 306° West  Level Estimated
Mon 12:16:00 AM 52.3675 47.2533 306° West  Level Estimated
Mon 12:17:00 AM 52.4275 47.1177 306° West  Level Estimated
Mon 12:18:00 AM 52.4873 46.9817 306° West  Level Estimated
Mon 12:19:00 AM 52.5469 46.8453 306° West  Level Estimated
Mon 12:20:00 AM 52.6063 46.7086 306° West  Level Estimated
Mon 12:21:00 AM 52.6657 46.5715 306° West  Level Estimated
Mon 12:22:00 AM 52.7248 46.4340 305° West  Level Estimated
Mon 12:23:00 AM 52.7838 46.2962 305° West  Level Estimated
Mon 12:24:00 AM 52.8427 46.1579 305° West  Level Estimated
Mon 12:25:00 AM 52.9013 46.0193 305° West  Level Estimated
Mon 12:26:00 AM 52.9599 45.8804 305° West  Level Estimated
Mon 12:27:00 AM 53.0182 45.7410 305° West  Level Estimated
Mon 12:28:00 AM 53.0764 45.6013 305° West  Level Estimated
Mon 12:29:00 AM 53.1344 45.4612 305° West  Level Estimated
Mon 12:30:00 AM 53.1923 45.3207 305° West  Level Estimated
Mon 12:31:00 AM 53.2500 45.1799 304° West  Level Estimated
Mon 12:32:00 AM 53.3075 45.0386 304° West  Level Estimated
Mon 12:33:00 AM 53.3648 44.8970 304° West  Level Estimated
Mon 12:34:00 AM 53.4220 44.7550 304° West  Level Estimated
Mon 12:35:00 AM 53.4791 44.6126 304° West  Level Estimated
Mon 12:36:00 AM 53.5359 44.4698 304° West  Level Estimated
Mon 12:37:00 AM 53.5926 44.3267 304° West  Level Estimated
Mon 12:38:00 AM 53.6491 44.1832 304° West  Level Estimated
Mon 12:39:00 AM 53.7054 44.0392 304° West  Level Estimated
Mon 12:40:00 AM 53.7616 43.8949 303° West  Level Estimated
Mon 12:41:00 AM 53.8176 43.7503 303° West  Level Estimated
Mon 12:42:00 AM 53.8734 43.6052 303° West  Level Estimated
Mon 12:43:00 AM 53.9291 43.4597 303° West  Level Estimated
Mon 12:44:00 AM 53.9845 43.3139 303° West  Level Estimated
Mon 12:45:00 AM 54.0398 43.1676 303° West  Level Estimated
Mon 12:46:00 AM 54.0949 43.0210 303° West  Level Estimated
Mon 12:47:00 AM 54.1499 42.8740 303° West  Level Estimated
Mon 12:48:00 AM 54.2046 42.7266 302° West  Level Estimated
Mon 12:49:00 AM 54.2592 42.5788 302° West  Level Estimated
Mon 12:50:00 AM 54.3136 42.4306 302° West  Level Estimated
Mon 12:51:00 AM 54.3678 42.2820 302° West  Level Estimated
Mon 12:52:00 AM 54.4218 42.1330 302° West  Level Estimated
Mon 12:53:00 AM 54.4757 41.9837 302° West  Level Estimated
Mon 12:54:00 AM 54.5293 41.8339 302° West  Level Estimated
Mon 12:55:00 AM 54.5828 41.6837 302° West  Level Estimated
Mon 12:56:00 AM 54.6361 41.5332 301° West  Level Estimated
Mon 12:57:00 AM 54.6892 41.3823 301° West  Level Estimated
Mon 12:58:00 AM 54.7421 41.2309 301° West  Level Estimated
Mon 12:59:00 AM 54.7948 41.0792 301° West  Level Estimated
Mon 01:00:00 AM 54.8473 40.9271 301° West  Level Estimated
Mon 01:01:00 AM 54.8997 40.7745 301° West  Level Estimated
Mon 01:02:00 AM 54.9518 40.6216 301° West  Level Estimated
Mon 01:03:00 AM 55.0038 40.4683 301° West  Level Estimated
Mon 01:04:00 AM 55.0555 40.3146 301° West  Level Estimated
Mon 01:05:00 AM 55.1071 40.1605 300° West  Level Estimated
Mon 01:06:00 AM 55.1585 40.0060 300° West  Level Estimated
Mon 01:07:00 AM 55.2097 39.8511 300° West  Level Estimated
Mon 01:08:00 AM 55.2607 39.6958 300° West  Level Estimated
Mon 01:09:00 AM 55.3115 39.5401 300° West  Level Estimated
Mon 01:10:00 AM 55.3619 39.3844 300° West  Level Estimated
Mon 01:11:00 AM 55.4122 39.2283 300° West  Level Estimated
Mon 01:12:00 AM 55.4622 39.0718 299° West  Level Estimated
Mon 01:13:00 AM 55.5121 38.9149 299° West  Level Estimated
Mon 01:14:00 AM 55.5617 38.7576 299° West  Level Estimated
Mon 01:15:00 AM 55.6112 38.6000 299° West  Level Estimated
Mon 01:16:00 AM 55.6604 38.4419 299° West  Level Estimated
Mon 01:17:00 AM 55.7095 38.2834 299° West  Level Estimated
Mon 01:18:00 AM 55.7583 38.1245 299° West  Level Estimated
Mon 01:19:00 AM 55.8070 37.9653 299° West  Level Estimated
Mon 01:20:00 AM 55.8554 37.8056 298° West  Level Estimated
Mon 01:21:00 AM 55.9036 37.6455 298° West  Level Estimated
Mon 01:22:00 AM 55.9516 37.4851 298° West  Level Estimated
Mon 01:23:00 AM 55.9726 37.4146 298° West  Level Estimated
Mon 01:24:00 AM 55.9726 37.4146 344° North  Level Estimated

Login

Don't have an account? Register now (free) for customized features, flight alerts, and more!